sensor_id;sensor_type;location;lat;lon;timestamp;P1;durP1;ratioP1;P2;durP2;ratioP2
9102;SDS011;4587;51.434;6.788;2023-02-10T00:00:01;38.03;;;29.00;;
9102;SDS011;4587;51.434;6.788;2023-02-10T00:02:28;48.60;;;30.53;;
9102;SDS011;4587;51.434;6.788;2023-02-10T00:04:54;43.57;;;30.53;;
9102;SDS011;4587;51.434;6.788;2023-02-10T00:07:19;45.47;;;30.33;;
9102;SDS011;4587;51.434;6.788;2023-02-10T00:09:45;42.80;;;30.77;;
9102;SDS011;4587;51.434;6.788;2023-02-10T00:12:12;45.60;;;30.17;;
9102;SDS011;4587;51.434;6.788;2023-02-10T00:14:38;41.37;;;29.33;;
9102;SDS011;4587;51.434;6.788;2023-02-10T00:17:04;43.27;;;30.70;;
9102;SDS011;4587;51.434;6.788;2023-02-10T00:19:30;45.40;;;32.23;;
9102;SDS011;4587;51.434;6.788;2023-02-10T00:21:56;43.43;;;31.27;;
9102;SDS011;4587;51.434;6.788;2023-02-10T00:24:22;43.90;;;30.33;;
9102;SDS011;4587;51.434;6.788;2023-02-10T00:26:48;45.07;;;31.60;;
9102;SDS011;4587;51.434;6.788;2023-02-10T00:29:14;39.87;;;30.73;;
9102;SDS011;4587;51.434;6.788;2023-02-10T00:31:40;39.77;;;30.40;;
9102;SDS011;4587;51.434;6.788;2023-02-10T00:34:06;45.73;;;32.80;;
9102;SDS011;4587;51.434;6.788;2023-02-10T00:36:35;47.53;;;32.77;;
9102;SDS011;4587;51.434;6.788;2023-02-10T00:39:00;48.00;;;33.07;;
9102;SDS011;4587;51.434;6.788;2023-02-10T00:41:26;47.80;;;32.87;;
9102;SDS011;4587;51.434;6.788;2023-02-10T00:43:51;44.23;;;31.50;;
9102;SDS011;4587;51.434;6.788;2023-02-10T00:46:17;45.33;;;32.63;;
9102;SDS011;4587;51.434;6.788;2023-02-10T00:48:44;48.33;;;33.73;;
9102;SDS011;4587;51.434;6.788;2023-02-10T00:51:11;44.87;;;32.80;;
9102;SDS011;4587;51.434;6.788;2023-02-10T00:53:37;48.20;;;32.87;;
9102;SDS011;4587;51.434;6.788;2023-02-10T00:56:03;51.13;;;33.37;;
9102;SDS011;4587;51.434;6.788;2023-02-10T00:58:29;49.87;;;33.07;;
9102;SDS011;4587;51.434;6.788;2023-02-10T01:00:54;45.20;;;32.63;;
9102;SDS011;4587;51.434;6.788;2023-02-10T01:03:20;48.37;;;33.67;;
9102;SDS011;4587;51.434;6.788;2023-02-10T01:05:46;49.07;;;33.40;;
9102;SDS011;4587;51.434;6.788;2023-02-10T01:08:12;49.33;;;33.43;;
9102;SDS011;4587;51.434;6.788;2023-02-10T01:10:39;53.40;;;35.07;;
9102;SDS011;4587;51.434;6.788;2023-02-10T01:13:05;49.43;;;35.07;;
9102;SDS011;4587;51.434;6.788;2023-02-10T01:15:31;51.03;;;34.50;;
9102;SDS011;4587;51.434;6.788;2023-02-10T01:17:57;54.07;;;35.80;;
9102;SDS011;4587;51.434;6.788;2023-02-10T01:20:23;55.87;;;35.73;;
9102;SDS011;4587;51.434;6.788;2023-02-10T01:22:50;52.50;;;35.70;;
9102;SDS011;4587;51.434;6.788;2023-02-10T01:25:15;54.63;;;35.13;;
9102;SDS011;4587;51.434;6.788;2023-02-10T01:27:41;48.90;;;35.27;;
9102;SDS011;4587;51.434;6.788;2023-02-10T01:30:07;49.63;;;35.43;;
9102;SDS011;4587;51.434;6.788;2023-02-10T01:32:33;51.63;;;36.10;;
9102;SDS011;4587;51.434;6.788;2023-02-10T01:34:58;54.10;;;35.83;;
9102;SDS011;4587;51.434;6.788;2023-02-10T01:37:24;49.23;;;35.17;;
9102;SDS011;4587;51.434;6.788;2023-02-10T01:39:49;53.30;;;35.97;;
9102;SDS011;4587;51.434;6.788;2023-02-10T01:42:15;53.53;;;35.70;;
9102;SDS011;4587;51.434;6.788;2023-02-10T01:47:07;52.60;;;36.70;;
9102;SDS011;4587;51.434;6.788;2023-02-10T01:49:40;57.17;;;37.80;;
9102;SDS011;4587;51.434;6.788;2023-02-10T01:52:11;56.83;;;35.97;;
9102;SDS011;4587;51.434;6.788;2023-02-10T01:57:37;57.07;;;36.23;;
9102;SDS011;4587;51.434;6.788;2023-02-10T02:00:07;55.67;;;36.53;;
9102;SDS011;4587;51.434;6.788;2023-02-10T02:02:33;51.33;;;35.47;;
9102;SDS011;4587;51.434;6.788;2023-02-10T02:05:01;47.57;;;34.00;;
9102;SDS011;4587;51.434;6.788;2023-02-10T02:07:29;48.47;;;35.27;;
9102;SDS011;4587;51.434;6.788;2023-02-10T02:09:58;49.17;;;34.13;;
9102;SDS011;4587;51.434;6.788;2023-02-10T02:17:50;47.40;;;33.30;;
9102;SDS011;4587;51.434;6.788;2023-02-10T02:33:51;47.17;;;34.13;;
9102;SDS011;4587;51.434;6.788;2023-02-10T02:36:29;48.30;;;34.30;;
9102;SDS011;4587;51.434;6.788;2023-02-10T02:39:02;51.07;;;35.33;;
9102;SDS011;4587;51.434;6.788;2023-02-10T02:41:29;48.63;;;35.27;;
9102;SDS011;4587;51.434;6.788;2023-02-10T02:43:56;46.10;;;34.90;;
9102;SDS011;4587;51.434;6.788;2023-02-10T02:49:41;46.50;;;34.10;;
9102;SDS011;4587;51.434;6.788;2023-02-10T02:52:17;49.40;;;36.30;;
9102;SDS011;4587;51.434;6.788;2023-02-10T02:55:05;51.00;;;34.80;;
9102;SDS011;4587;51.434;6.788;2023-02-10T02:58:01;50.03;;;36.83;;
9102;SDS011;4587;51.434;6.788;2023-02-10T03:00:31;48.00;;;34.03;;
9102;SDS011;4587;51.434;6.788;2023-02-10T03:02:59;48.43;;;34.60;;
9102;SDS011;4587;51.434;6.788;2023-02-10T03:05:30;51.63;;;35.77;;
9102;SDS011;4587;51.434;6.788;2023-02-10T03:07:57;47.53;;;35.27;;
9102;SDS011;4587;51.434;6.788;2023-02-10T03:10:22;46.37;;;35.90;;
9102;SDS011;4587;51.434;6.788;2023-02-10T03:12:48;50.67;;;33.47;;
9102;SDS011;4587;51.434;6.788;2023-02-10T03:15:15;47.60;;;34.17;;
9102;SDS011;4587;51.434;6.788;2023-02-10T03:17:41;47.70;;;33.87;;
9102;SDS011;4587;51.434;6.788;2023-02-10T03:20:07;47.87;;;33.33;;
9102;SDS011;4587;51.434;6.788;2023-02-10T03:22:33;45.83;;;34.20;;
9102;SDS011;4587;51.434;6.788;2023-02-10T03:24:59;49.67;;;34.53;;
9102;SDS011;4587;51.434;6.788;2023-02-10T03:27:24;47.30;;;33.90;;
9102;SDS011;4587;51.434;6.788;2023-02-10T03:29:50;47.33;;;32.97;;
9102;SDS011;4587;51.434;6.788;2023-02-10T03:32:17;51.63;;;34.83;;
9102;SDS011;4587;51.434;6.788;2023-02-10T03:34:43;48.77;;;35.20;;
9102;SDS011;4587;51.434;6.788;2023-02-10T03:37:09;44.70;;;34.07;;
9102;SDS011;4587;51.434;6.788;2023-02-10T03:39:35;47.93;;;34.23;;
9102;SDS011;4587;51.434;6.788;2023-02-10T03:42:00;46.30;;;34.33;;
9102;SDS011;4587;51.434;6.788;2023-02-10T03:44:26;47.47;;;33.50;;
9102;SDS011;4587;51.434;6.788;2023-02-10T03:46:51;49.77;;;34.27;;
9102;SDS011;4587;51.434;6.788;2023-02-10T03:49:17;46.43;;;34.77;;
9102;SDS011;4587;51.434;6.788;2023-02-10T03:51:42;47.03;;;33.53;;
9102;SDS011;4587;51.434;6.788;2023-02-10T03:54:08;44.53;;;32.87;;
9102;SDS011;4587;51.434;6.788;2023-02-10T03:56:34;49.33;;;35.37;;
9102;SDS011;4587;51.434;6.788;2023-02-10T03:59:00;48.73;;;34.83;;
9102;SDS011;4587;51.434;6.788;2023-02-10T04:01:27;46.20;;;33.53;;
9102;SDS011;4587;51.434;6.788;2023-02-10T04:03:52;50.07;;;34.23;;
9102;SDS011;4587;51.434;6.788;2023-02-10T04:06:18;49.27;;;34.63;;
9102;SDS011;4587;51.434;6.788;2023-02-10T04:08:43;45.33;;;32.80;;
9102;SDS011;4587;51.434;6.788;2023-02-10T04:11:10;50.37;;;34.43;;
9102;SDS011;4587;51.434;6.788;2023-02-10T04:13:36;48.33;;;33.00;;
9102;SDS011;4587;51.434;6.788;2023-02-10T04:16:03;49.17;;;34.17;;
9102;SDS011;4587;51.434;6.788;2023-02-10T04:18:33;48.27;;;33.90;;
9102;SDS011;4587;51.434;6.788;2023-02-10T04:21:00;49.37;;;34.57;;
9102;SDS011;4587;51.434;6.788;2023-02-10T04:23:28;47.47;;;33.03;;
9102;SDS011;4587;51.434;6.788;2023-02-10T04:25:55;46.67;;;32.30;;
9102;SDS011;4587;51.434;6.788;2023-02-10T04:28:21;46.90;;;34.00;;
9102;SDS011;4587;51.434;6.788;2023-02-10T04:30:50;44.07;;;32.97;;
9102;SDS011;4587;51.434;6.788;2023-02-10T04:33:16;48.10;;;33.90;;
9102;SDS011;4587;51.434;6.788;2023-02-10T04:35:41;46.50;;;33.10;;
9102;SDS011;4587;51.434;6.788;2023-02-10T04:38:09;43.70;;;32.70;;
9102;SDS011;4587;51.434;6.788;2023-02-10T04:40:35;42.13;;;32.97;;
9102;SDS011;4587;51.434;6.788;2023-02-10T04:43:00;45.83;;;32.93;;
9102;SDS011;4587;51.434;6.788;2023-02-10T04:45:26;46.57;;;33.40;;
9102;SDS011;4587;51.434;6.788;2023-02-10T04:47:51;46.37;;;34.20;;
9102;SDS011;4587;51.434;6.788;2023-02-10T04:50:17;47.27;;;34.10;;
9102;SDS011;4587;51.434;6.788;2023-02-10T04:52:43;47.60;;;32.80;;
9102;SDS011;4587;51.434;6.788;2023-02-10T04:55:08;45.80;;;32.37;;
9102;SDS011;4587;51.434;6.788;2023-02-10T04:57:34;44.70;;;33.20;;
9102;SDS011;4587;51.434;6.788;2023-02-10T04:59:59;47.33;;;34.53;;
9102;SDS011;4587;51.434;6.788;2023-02-10T05:02:25;45.33;;;33.80;;
9102;SDS011;4587;51.434;6.788;2023-02-10T05:04:50;50.53;;;34.37;;
9102;SDS011;4587;51.434;6.788;2023-02-10T05:07:16;45.10;;;34.20;;
9102;SDS011;4587;51.434;6.788;2023-02-10T05:09:41;44.63;;;33.50;;
9102;SDS011;4587;51.434;6.788;2023-02-10T05:12:07;49.97;;;35.80;;
9102;SDS011;4587;51.434;6.788;2023-02-10T05:14:32;47.30;;;33.77;;
9102;SDS011;4587;51.434;6.788;2023-02-10T05:16:58;48.47;;;33.30;;
9102;SDS011;4587;51.434;6.788;2023-02-10T05:19:23;49.30;;;35.03;;
9102;SDS011;4587;51.434;6.788;2023-02-10T05:21:49;49.23;;;34.57;;
9102;SDS011;4587;51.434;6.788;2023-02-10T05:24:15;48.57;;;35.47;;
9102;SDS011;4587;51.434;6.788;2023-02-10T05:26:40;47.73;;;35.07;;
9102;SDS011;4587;51.434;6.788;2023-02-10T05:29:06;50.40;;;35.10;;
9102;SDS011;4587;51.434;6.788;2023-02-10T05:31:31;51.67;;;35.00;;
9102;SDS011;4587;51.434;6.788;2023-02-10T05:33:57;48.50;;;34.93;;
9102;SDS011;4587;51.434;6.788;2023-02-10T05:36:23;48.60;;;36.13;;
9102;SDS011;4587;51.434;6.788;2023-02-10T05:38:49;50.90;;;34.87;;
9102;SDS011;4587;51.434;6.788;2023-02-10T05:41:33;50.70;;;35.00;;
9102;SDS011;4587;51.434;6.788;2023-02-10T05:43:59;51.00;;;34.77;;
9102;SDS011;4587;51.434;6.788;2023-02-10T05:46:24;54.60;;;35.77;;
9102;SDS011;4587;51.434;6.788;2023-02-10T05:48:50;51.07;;;34.97;;
9102;SDS011;4587;51.434;6.788;2023-02-10T05:51:15;52.37;;;36.17;;
9102;SDS011;4587;51.434;6.788;2023-02-10T05:53:41;49.57;;;35.97;;
9102;SDS011;4587;51.434;6.788;2023-02-10T05:56:06;54.73;;;36.67;;
9102;SDS011;4587;51.434;6.788;2023-02-10T05:58:32;54.87;;;36.13;;
9102;SDS011;4587;51.434;6.788;2023-02-10T06:01:00;47.93;;;34.47;;
9102;SDS011;4587;51.434;6.788;2023-02-10T06:03:30;51.77;;;36.27;;
9102;SDS011;4587;51.434;6.788;2023-02-10T06:05:55;49.30;;;35.13;;
9102;SDS011;4587;51.434;6.788;2023-02-10T06:08:21;51.47;;;36.57;;
9102;SDS011;4587;51.434;6.788;2023-02-10T06:10:47;49.17;;;36.03;;
9102;SDS011;4587;51.434;6.788;2023-02-10T06:13:12;50.13;;;35.13;;
9102;SDS011;4587;51.434;6.788;2023-02-10T06:15:38;53.27;;;36.70;;
9102;SDS011;4587;51.434;6.788;2023-02-10T06:18:03;52.83;;;37.07;;
9102;SDS011;4587;51.434;6.788;2023-02-10T06:20:29;56.73;;;37.17;;
9102;SDS011;4587;51.434;6.788;2023-02-10T06:22:54;54.67;;;36.83;;
9102;SDS011;4587;51.434;6.788;2023-02-10T06:25:20;52.90;;;37.17;;
9102;SDS011;4587;51.434;6.788;2023-02-10T06:27:45;54.13;;;37.40;;
9102;SDS011;4587;51.434;6.788;2023-02-10T06:30:11;53.13;;;38.13;;
9102;SDS011;4587;51.434;6.788;2023-02-10T06:32:37;52.30;;;36.73;;
9102;SDS011;4587;51.434;6.788;2023-02-10T06:35:02;53.33;;;36.97;;
9102;SDS011;4587;51.434;6.788;2023-02-10T06:37:28;51.67;;;36.37;;
9102;SDS011;4587;51.434;6.788;2023-02-10T06:39:54;56.10;;;35.80;;
9102;SDS011;4587;51.434;6.788;2023-02-10T06:42:20;54.37;;;37.43;;
9102;SDS011;4587;51.434;6.788;2023-02-10T06:44:46;48.73;;;35.33;;
9102;SDS011;4587;51.434;6.788;2023-02-10T06:47:11;52.20;;;36.43;;
9102;SDS011;4587;51.434;6.788;2023-02-10T06:49:37;51.83;;;35.50;;
9102;SDS011;4587;51.434;6.788;2023-02-10T06:52:02;52.57;;;36.23;;
9102;SDS011;4587;51.434;6.788;2023-02-10T06:54:28;55.13;;;36.87;;
9102;SDS011;4587;51.434;6.788;2023-02-10T06:56:54;50.17;;;35.13;;
9102;SDS011;4587;51.434;6.788;2023-02-10T06:59:20;50.13;;;35.83;;
9102;SDS011;4587;51.434;6.788;2023-02-10T07:01:46;46.47;;;35.20;;
9102;SDS011;4587;51.434;6.788;2023-02-10T07:04:12;50.77;;;35.70;;
9102;SDS011;4587;51.434;6.788;2023-02-10T07:06:38;48.93;;;34.93;;
9102;SDS011;4587;51.434;6.788;2023-02-10T07:09:04;52.37;;;36.23;;
9102;SDS011;4587;51.434;6.788;2023-02-10T07:11:30;47.77;;;33.07;;
9102;SDS011;4587;51.434;6.788;2023-02-10T07:13:57;49.33;;;35.13;;
9102;SDS011;4587;51.434;6.788;2023-02-10T07:16:22;53.07;;;35.53;;
9102;SDS011;4587;51.434;6.788;2023-02-10T07:18:48;50.80;;;34.47;;
9102;SDS011;4587;51.434;6.788;2023-02-10T07:21:14;49.60;;;36.20;;
9102;SDS011;4587;51.434;6.788;2023-02-10T07:23:39;49.53;;;35.80;;
9102;SDS011;4587;51.434;6.788;2023-02-10T07:26:05;51.80;;;36.13;;
9102;SDS011;4587;51.434;6.788;2023-02-10T07:28:31;50.10;;;35.30;;
9102;SDS011;4587;51.434;6.788;2023-02-10T07:30:57;48.13;;;34.27;;
9102;SDS011;4587;51.434;6.788;2023-02-10T07:33:23;48.63;;;35.43;;
9102;SDS011;4587;51.434;6.788;2023-02-10T07:35:48;51.13;;;34.60;;
9102;SDS011;4587;51.434;6.788;2023-02-10T07:38:14;51.07;;;35.37;;
9102;SDS011;4587;51.434;6.788;2023-02-10T07:40:40;53.33;;;35.00;;
9102;SDS011;4587;51.434;6.788;2023-02-10T07:43:06;49.37;;;35.30;;
9102;SDS011;4587;51.434;6.788;2023-02-10T07:45:31;50.20;;;35.23;;
9102;SDS011;4587;51.434;6.788;2023-02-10T07:47:57;47.43;;;35.40;;
9102;SDS011;4587;51.434;6.788;2023-02-10T07:50:24;51.27;;;35.30;;
9102;SDS011;4587;51.434;6.788;2023-02-10T07:52:50;49.33;;;36.67;;
9102;SDS011;4587;51.434;6.788;2023-02-10T07:55:16;49.57;;;35.23;;
9102;SDS011;4587;51.434;6.788;2023-02-10T07:57:42;49.63;;;35.57;;
9102;SDS011;4587;51.434;6.788;2023-02-10T08:00:08;49.07;;;34.53;;
9102;SDS011;4587;51.434;6.788;2023-02-10T08:02:34;50.37;;;35.93;;
9102;SDS011;4587;51.434;6.788;2023-02-10T08:04:59;50.17;;;35.03;;
9102;SDS011;4587;51.434;6.788;2023-02-10T08:07:25;56.77;;;35.73;;
9102;SDS011;4587;51.434;6.788;2023-02-10T08:09:51;49.60;;;36.27;;
9102;SDS011;4587;51.434;6.788;2023-02-10T08:12:16;51.90;;;36.00;;
9102;SDS011;4587;51.434;6.788;2023-02-10T08:14:42;49.07;;;35.20;;
9102;SDS011;4587;51.434;6.788;2023-02-10T08:17:07;48.27;;;35.50;;
9102;SDS011;4587;51.434;6.788;2023-02-10T08:19:33;50.37;;;34.67;;
9102;SDS011;4587;51.434;6.788;2023-02-10T08:22:01;45.07;;;34.17;;
9102;SDS011;4587;51.434;6.788;2023-02-10T08:24:28;45.73;;;34.10;;
9102;SDS011;4587;51.434;6.788;2023-02-10T08:26:54;46.23;;;33.97;;
9102;SDS011;4587;51.434;6.788;2023-02-10T08:29:20;48.17;;;33.57;;
9102;SDS011;4587;51.434;6.788;2023-02-10T08:31:48;46.73;;;34.80;;
9102;SDS011;4587;51.434;6.788;2023-02-10T08:34:15;48.70;;;34.93;;
9102;SDS011;4587;51.434;6.788;2023-02-10T08:36:42;52.53;;;34.90;;
9102;SDS011;4587;51.434;6.788;2023-02-10T08:39:08;50.13;;;34.33;;
9102;SDS011;4587;51.434;6.788;2023-02-10T08:41:33;46.03;;;33.07;;
9102;SDS011;4587;51.434;6.788;2023-02-10T08:43:59;45.67;;;34.70;;
9102;SDS011;4587;51.434;6.788;2023-02-10T08:46:25;48.23;;;35.13;;
9102;SDS011;4587;51.434;6.788;2023-02-10T08:48:50;48.13;;;34.50;;
9102;SDS011;4587;51.434;6.788;2023-02-10T08:51:16;49.67;;;35.87;;
9102;SDS011;4587;51.434;6.788;2023-02-10T08:53:42;48.80;;;34.70;;
9102;SDS011;4587;51.434;6.788;2023-02-10T08:56:10;47.87;;;34.57;;
9102;SDS011;4587;51.434;6.788;2023-02-10T08:58:40;48.63;;;34.50;;
9102;SDS011;4587;51.434;6.788;2023-02-10T09:01:09;48.07;;;34.67;;
9102;SDS011;4587;51.434;6.788;2023-02-10T09:03:37;51.80;;;35.03;;
9102;SDS011;4587;51.434;6.788;2023-02-10T09:06:03;53.03;;;36.30;;
9102;SDS011;4587;51.434;6.788;2023-02-10T09:08:29;50.10;;;35.10;;
9102;SDS011;4587;51.434;6.788;2023-02-10T09:10:54;52.17;;;35.50;;
9102;SDS011;4587;51.434;6.788;2023-02-10T09:13:20;47.97;;;35.00;;
9102;SDS011;4587;51.434;6.788;2023-02-10T09:15:46;50.53;;;36.37;;
9102;SDS011;4587;51.434;6.788;2023-02-10T09:18:11;50.13;;;36.70;;
9102;SDS011;4587;51.434;6.788;2023-02-10T09:20:37;49.20;;;35.33;;
9102;SDS011;4587;51.434;6.788;2023-02-10T09:23:03;48.67;;;36.20;;
9102;SDS011;4587;51.434;6.788;2023-02-10T09:25:29;52.80;;;36.53;;
9102;SDS011;4587;51.434;6.788;2023-02-10T09:27:55;52.13;;;35.70;;
9102;SDS011;4587;51.434;6.788;2023-02-10T09:30:22;49.43;;;35.43;;
9102;SDS011;4587;51.434;6.788;2023-02-10T09:32:51;50.00;;;35.40;;
9102;SDS011;4587;51.434;6.788;2023-02-10T09:35:17;52.70;;;34.73;;
9102;SDS011;4587;51.434;6.788;2023-02-10T09:37:43;48.90;;;35.47;;
9102;SDS011;4587;51.434;6.788;2023-02-10T09:40:11;49.70;;;35.93;;
9102;SDS011;4587;51.434;6.788;2023-02-10T09:45:29;49.70;;;37.10;;
9102;SDS011;4587;51.434;6.788;2023-02-10T09:50:51;48.70;;;35.50;;
9102;SDS011;4587;51.434;6.788;2023-02-10T09:53:29;49.60;;;35.97;;
9102;SDS011;4587;51.434;6.788;2023-02-10T09:55:56;50.53;;;36.77;;
9102;SDS011;4587;51.434;6.788;2023-02-10T09:58:34;50.43;;;37.40;;
9102;SDS011;4587;51.434;6.788;2023-02-10T10:01:14;51.50;;;36.80;;
9102;SDS011;4587;51.434;6.788;2023-02-10T10:04:23;49.30;;;37.50;;
9102;SDS011;4587;51.434;6.788;2023-02-10T10:06:39;51.30;;;37.27;;
9102;SDS011;4587;51.434;6.788;2023-02-10T10:11:37;50.57;;;36.57;;
9102;SDS011;4587;51.434;6.788;2023-02-10T10:14:04;55.17;;;36.93;;
9102;SDS011;4587;51.434;6.788;2023-02-10T10:25:36;51.07;;;37.03;;
9102;SDS011;4587;51.434;6.788;2023-02-10T10:33:41;52.70;;;38.20;;
9102;SDS011;4587;51.434;6.788;2023-02-10T10:36:23;48.57;;;37.10;;
9102;SDS011;4587;51.434;6.788;2023-02-10T10:39:09;54.73;;;39.53;;
9102;SDS011;4587;51.434;6.788;2023-02-10T10:41:37;55.37;;;37.80;;
9102;SDS011;4587;51.434;6.788;2023-02-10T10:44:03;55.37;;;37.43;;
9102;SDS011;4587;51.434;6.788;2023-02-10T10:49:06;48.53;;;34.93;;
9102;SDS011;4587;51.434;6.788;2023-02-10T10:51:32;53.80;;;37.10;;
9102;SDS011;4587;51.434;6.788;2023-02-10T10:53:59;47.80;;;35.10;;
9102;SDS011;4587;51.434;6.788;2023-02-10T10:56:33;51.27;;;35.27;;
9102;SDS011;4587;51.434;6.788;2023-02-10T10:59:11;47.53;;;34.77;;
9102;SDS011;4587;51.434;6.788;2023-02-10T11:01:39;49.57;;;33.80;;
9102;SDS011;4587;51.434;6.788;2023-02-10T11:04:10;54.80;;;35.50;;
9102;SDS011;4587;51.434;6.788;2023-02-10T11:06:41;48.83;;;33.80;;
9102;SDS011;4587;51.434;6.788;2023-02-10T11:09:29;47.53;;;34.73;;
9102;SDS011;4587;51.434;6.788;2023-02-10T11:14:36;46.53;;;32.27;;
9102;SDS011;4587;51.434;6.788;2023-02-10T11:17:15;48.00;;;31.83;;
9102;SDS011;4587;51.434;6.788;2023-02-10T11:19:58;48.57;;;33.20;;
9102;SDS011;4587;51.434;6.788;2023-02-10T11:22:36;48.43;;;32.70;;
9102;SDS011;4587;51.434;6.788;2023-02-10T11:25:26;46.93;;;32.00;;
9102;SDS011;4587;51.434;6.788;2023-02-10T11:27:51;47.43;;;33.40;;
9102;SDS011;4587;51.434;6.788;2023-02-10T11:33:01;45.03;;;32.60;;
9102;SDS011;4587;51.434;6.788;2023-02-10T11:35:27;45.77;;;32.00;;
9102;SDS011;4587;51.434;6.788;2023-02-10T11:38:03;48.17;;;31.23;;
9102;SDS011;4587;51.434;6.788;2023-02-10T11:40:38;44.63;;;29.67;;
9102;SDS011;4587;51.434;6.788;2023-02-10T11:43:17;43.17;;;31.13;;
9102;SDS011;4587;51.434;6.788;2023-02-10T11:45:53;42.07;;;30.23;;
9102;SDS011;4587;51.434;6.788;2023-02-10T11:48:21;43.00;;;30.47;;
9102;SDS011;4587;51.434;6.788;2023-02-10T11:50:48;40.70;;;29.07;;
9102;SDS011;4587;51.434;6.788;2023-02-10T11:53:45;43.77;;;29.03;;
9102;SDS011;4587;51.434;6.788;2023-02-10T11:56:18;39.47;;;27.77;;
9102;SDS011;4587;51.434;6.788;2023-02-10T11:59:19;40.60;;;29.30;;
9102;SDS011;4587;51.434;6.788;2023-02-10T12:01:48;37.67;;;27.20;;
9102;SDS011;4587;51.434;6.788;2023-02-10T12:04:20;36.63;;;26.10;;
9102;SDS011;4587;51.434;6.788;2023-02-10T12:09:47;33.63;;;22.77;;
9102;SDS011;4587;51.434;6.788;2023-02-10T12:12:44;32.37;;;20.87;;
9102;SDS011;4587;51.434;6.788;2023-02-10T12:18:26;27.67;;;17.73;;
9102;SDS011;4587;51.434;6.788;2023-02-10T12:21:18;28.27;;;18.60;;
9102;SDS011;4587;51.434;6.788;2023-02-10T12:26:34;26.30;;;16.60;;
9102;SDS011;4587;51.434;6.788;2023-02-10T12:31:56;24.70;;;14.80;;
9102;SDS011;4587;51.434;6.788;2023-02-10T12:40:12;23.37;;;14.27;;
9102;SDS011;4587;51.434;6.788;2023-02-10T12:42:47;21.17;;;14.20;;
9102;SDS011;4587;51.434;6.788;2023-02-10T12:45:42;25.53;;;15.20;;
9102;SDS011;4587;51.434;6.788;2023-02-10T12:53:55;21.00;;;12.53;;
9102;SDS011;4587;51.434;6.788;2023-02-10T12:56:26;25.07;;;12.93;;
9102;SDS011;4587;51.434;6.788;2023-02-10T12:59:00;23.67;;;14.30;;
9102;SDS011;4587;51.434;6.788;2023-02-10T13:01:49;23.87;;;14.97;;
9102;SDS011;4587;51.434;6.788;2023-02-10T13:07:05;27.77;;;16.63;;
9102;SDS011;4587;51.434;6.788;2023-02-10T13:12:33;23.30;;;15.33;;
9102;SDS011;4587;51.434;6.788;2023-02-10T13:15:04;24.67;;;15.13;;
9102;SDS011;4587;51.434;6.788;2023-02-10T13:17:42;24.10;;;15.67;;
9102;SDS011;4587;51.434;6.788;2023-02-10T13:23:25;23.77;;;14.80;;
9102;SDS011;4587;51.434;6.788;2023-02-10T13:28:43;25.80;;;15.47;;
9102;SDS011;4587;51.434;6.788;2023-02-10T13:34:24;32.20;;;17.77;;
9102;SDS011;4587;51.434;6.788;2023-02-10T13:36:54;31.80;;;18.40;;
9102;SDS011;4587;51.434;6.788;2023-02-10T13:39:51;27.57;;;18.03;;
9102;SDS011;4587;51.434;6.788;2023-02-10T13:42:29;34.07;;;21.30;;
9102;SDS011;4587;51.434;6.788;2023-02-10T13:47:37;31.67;;;21.43;;
9102;SDS011;4587;51.434;6.788;2023-02-10T13:50:17;37.83;;;22.23;;
9102;SDS011;4587;51.434;6.788;2023-02-10T14:00:25;28.63;;;21.30;;
9102;SDS011;4587;51.434;6.788;2023-02-10T14:03:03;31.57;;;21.70;;
9102;SDS011;4587;51.434;6.788;2023-02-10T14:05:36;29.97;;;21.40;;
9102;SDS011;4587;51.434;6.788;2023-02-10T14:08:14;32.30;;;21.30;;
9102;SDS011;4587;51.434;6.788;2023-02-10T14:10:55;33.03;;;21.77;;
9102;SDS011;4587;51.434;6.788;2023-02-10T14:13:40;31.57;;;22.30;;
9102;SDS011;4587;51.434;6.788;2023-02-10T14:18:56;29.77;;;20.13;;
9102;SDS011;4587;51.434;6.788;2023-02-10T14:21:23;34.57;;;20.40;;
9102;SDS011;4587;51.434;6.788;2023-02-10T14:23:50;25.20;;;19.73;;
9102;SDS011;4587;51.434;6.788;2023-02-10T14:26:20;31.43;;;20.40;;
9102;SDS011;4587;51.434;6.788;2023-02-10T14:28:50;29.93;;;20.13;;
9102;SDS011;4587;51.434;6.788;2023-02-10T14:31:20;26.63;;;19.70;;
9102;SDS011;4587;51.434;6.788;2023-02-10T14:33:56;29.27;;;19.70;;
9102;SDS011;4587;51.434;6.788;2023-02-10T14:36:23;28.17;;;19.07;;
9102;SDS011;4587;51.434;6.788;2023-02-10T14:38:50;25.27;;;19.97;;
9102;SDS011;4587;51.434;6.788;2023-02-10T14:41:27;29.53;;;19.80;;
9102;SDS011;4587;51.434;6.788;2023-02-10T14:43:55;24.70;;;19.53;;
9102;SDS011;4587;51.434;6.788;2023-02-10T14:46:22;27.13;;;20.00;;
9102;SDS011;4587;51.434;6.788;2023-02-10T14:48:50;28.27;;;20.83;;
9102;SDS011;4587;51.434;6.788;2023-02-10T14:51:27;30.50;;;21.53;;
9102;SDS011;4587;51.434;6.788;2023-02-10T14:53:53;27.97;;;20.83;;
9102;SDS011;4587;51.434;6.788;2023-02-10T14:56:23;28.80;;;19.90;;
9102;SDS011;4587;51.434;6.788;2023-02-10T14:58:50;27.93;;;21.77;;
9102;SDS011;4587;51.434;6.788;2023-02-10T15:01:19;30.03;;;20.27;;
9102;SDS011;4587;51.434;6.788;2023-02-10T15:03:53;30.10;;;21.23;;
9102;SDS011;4587;51.434;6.788;2023-02-10T15:06:22;27.10;;;20.97;;
9102;SDS011;4587;51.434;6.788;2023-02-10T15:08:56;25.13;;;21.40;;
9102;SDS011;4587;51.434;6.788;2023-02-10T15:11:24;28.73;;;22.23;;
9102;SDS011;4587;51.434;6.788;2023-02-10T15:14:17;31.50;;;22.47;;
9102;SDS011;4587;51.434;6.788;2023-02-10T15:16:47;27.47;;;21.23;;
9102;SDS011;4587;51.434;6.788;2023-02-10T15:19:14;27.90;;;22.20;;
9102;SDS011;4587;51.434;6.788;2023-02-10T15:21:41;30.97;;;23.10;;
9102;SDS011;4587;51.434;6.788;2023-02-10T15:24:18;27.67;;;22.07;;
9102;SDS011;4587;51.434;6.788;2023-02-10T15:26:49;28.57;;;23.57;;
9102;SDS011;4587;51.434;6.788;2023-02-10T15:29:16;28.17;;;21.60;;
9102;SDS011;4587;51.434;6.788;2023-02-10T15:31:42;26.83;;;20.97;;
9102;SDS011;4587;51.434;6.788;2023-02-10T15:34:29;29.43;;;21.77;;
9102;SDS011;4587;51.434;6.788;2023-02-10T15:37:02;29.47;;;22.00;;
9102;SDS011;4587;51.434;6.788;2023-02-10T15:39:31;30.33;;;21.97;;
9102;SDS011;4587;51.434;6.788;2023-02-10T15:44:29;26.83;;;20.80;;
9102;SDS011;4587;51.434;6.788;2023-02-10T15:49:44;28.17;;;20.30;;
9102;SDS011;4587;51.434;6.788;2023-02-10T15:52:15;26.17;;;19.83;;
9102;SDS011;4587;51.434;6.788;2023-02-10T15:54:45;24.80;;;20.00;;
9102;SDS011;4587;51.434;6.788;2023-02-10T15:57:12;24.37;;;19.63;;
9102;SDS011;4587;51.434;6.788;2023-02-10T15:59:38;25.70;;;19.80;;
9102;SDS011;4587;51.434;6.788;2023-02-10T16:02:05;24.23;;;17.80;;
9102;SDS011;4587;51.434;6.788;2023-02-10T16:04:35;23.90;;;18.20;;
9102;SDS011;4587;51.434;6.788;2023-02-10T16:07:01;24.53;;;18.70;;
9102;SDS011;4587;51.434;6.788;2023-02-10T16:09:28;25.23;;;18.23;;
9102;SDS011;4587;51.434;6.788;2023-02-10T16:11:55;23.30;;;18.73;;
9102;SDS011;4587;51.434;6.788;2023-02-10T16:14:22;22.77;;;17.50;;
9102;SDS011;4587;51.434;6.788;2023-02-10T16:16:49;24.00;;;18.67;;
9102;SDS011;4587;51.434;6.788;2023-02-10T16:19:19;25.43;;;19.20;;
9102;SDS011;4587;51.434;6.788;2023-02-10T16:21:47;24.93;;;18.70;;
9102;SDS011;4587;51.434;6.788;2023-02-10T16:24:13;22.23;;;18.17;;
9102;SDS011;4587;51.434;6.788;2023-02-10T16:26:42;22.83;;;17.27;;
9102;SDS011;4587;51.434;6.788;2023-02-10T16:29:17;21.90;;;17.47;;
9102;SDS011;4587;51.434;6.788;2023-02-10T16:31:44;24.03;;;17.50;;
9102;SDS011;4587;51.434;6.788;2023-02-10T16:34:10;25.47;;;18.30;;
9102;SDS011;4587;51.434;6.788;2023-02-10T16:36:36;25.30;;;17.77;;
9102;SDS011;4587;51.434;6.788;2023-02-10T16:39:03;25.23;;;18.60;;
9102;SDS011;4587;51.434;6.788;2023-02-10T16:41:30;27.77;;;18.40;;
9102;SDS011;4587;51.434;6.788;2023-02-10T16:43:55;21.43;;;18.10;;
9102;SDS011;4587;51.434;6.788;2023-02-10T16:46:21;23.40;;;18.17;;
9102;SDS011;4587;51.434;6.788;2023-02-10T16:48:47;27.37;;;18.47;;
9102;SDS011;4587;51.434;6.788;2023-02-10T16:51:13;26.07;;;18.40;;